createdAt,value
2023-03-04T00:01:01.461Z,59.47
2023-03-04T00:03:29.520Z,52.08
2023-03-04T00:05:56.843Z,52.72
2023-03-04T00:08:24.602Z,56.10
2023-03-04T00:10:52.111Z,49.10
2023-03-04T00:13:22.073Z,53.00
2023-03-04T00:15:49.625Z,53.38
2023-03-04T00:18:17.376Z,50.78
2023-03-04T00:20:44.673Z,48.40
2023-03-04T00:23:12.283Z,55.75
2023-03-04T00:25:41.926Z,57.30
2023-03-04T00:28:11.274Z,54.60
2023-03-04T00:30:39.423Z,53.88
2023-03-04T00:33:07.016Z,59.35
2023-03-04T00:35:34.506Z,50.88
2023-03-04T00:38:01.613Z,50.33
2023-03-04T00:40:29.492Z,55.50
2023-03-04T00:42:56.722Z,62.83
2023-03-04T00:45:24.468Z,63.00
2023-03-04T00:47:52.312Z,58.08
2023-03-04T00:50:20.076Z,57.75
2023-03-04T00:52:47.350Z,56.38
2023-03-04T00:55:14.946Z,65.28
2023-03-04T00:57:42.297Z,58.88
2023-03-04T01:00:10.749Z,57.20
2023-03-04T01:02:38.086Z,54.70
2023-03-04T01:05:07.149Z,51.40
2023-03-04T01:07:34.455Z,52.20
2023-03-04T01:10:02.354Z,69.53
2023-03-04T01:12:29.712Z,63.80
2023-03-04T01:14:57.255Z,59.72
2023-03-04T01:17:24.523Z,65.72
2023-03-04T01:19:52.330Z,60.08
2023-03-04T01:22:20.658Z,54.95
2023-03-04T01:24:48.910Z,62.50
2023-03-04T01:27:16.205Z,57.67
2023-03-04T01:29:44.677Z,59.85
2023-03-04T01:32:12.162Z,59.50
2023-03-04T01:34:39.896Z,63.40
2023-03-04T01:37:07.062Z,45.53
2023-03-04T01:39:34.677Z,51.80
2023-03-04T01:42:02.387Z,49.63
2023-03-04T01:44:30.042Z,57.90
2023-03-04T01:46:57.489Z,59.90
2023-03-04T01:49:25.538Z,60.13
2023-03-04T01:51:54.479Z,48.30
2023-03-04T01:54:23.215Z,59.45
2023-03-04T01:56:51.992Z,53.25
2023-03-04T01:59:25.760Z,61.60
2023-03-04T02:01:57.859Z,52.30
2023-03-04T02:04:30.566Z,55.60
2023-03-04T02:06:58.396Z,58.05
2023-03-04T02:09:28.871Z,60.03
2023-03-04T02:11:56.541Z,54.33
2023-03-04T02:14:24.846Z,53.10
2023-03-04T02:16:52.521Z,56.17
2023-03-04T02:19:33.115Z,62.53
2023-03-04T02:22:00.452Z,61.53
2023-03-04T02:24:37.525Z,51.88
2023-03-04T02:27:05.309Z,54.63
2023-03-04T02:29:33.364Z,59.60
2023-03-04T02:32:00.839Z,52.78
2023-03-04T02:34:36.043Z,62.25
2023-03-04T02:37:04.475Z,47.35
2023-03-04T02:39:36.190Z,50.53
2023-03-04T02:42:05.110Z,54.33
2023-03-04T02:44:41.932Z,56.40
2023-03-04T02:47:11.709Z,58.80
2023-03-04T02:49:40.352Z,54.28
2023-03-04T02:52:19.875Z,61.17
2023-03-04T02:54:47.904Z,57.25
2023-03-04T02:57:17.016Z,58.50
2023-03-04T02:59:48.335Z,59.20
2023-03-04T03:02:20.252Z,57.05
2023-03-04T03:04:48.481Z,57.25
2023-03-04T03:07:18.646Z,58.85
2023-03-04T03:09:46.587Z,53.67
2023-03-04T03:12:13.957Z,64.20
2023-03-04T03:14:41.879Z,56.83
2023-03-04T03:17:11.934Z,62.28
2023-03-04T03:19:39.707Z,59.45
2023-03-04T03:22:08.938Z,54.40
2023-03-04T03:24:37.101Z,65.65
2023-03-04T03:27:04.460Z,62.22
2023-03-04T03:29:32.295Z,61.80
2023-03-04T03:31:59.659Z,65.70
2023-03-04T03:34:27.485Z,61.50
2023-03-04T03:36:54.965Z,55.15
2023-03-04T03:39:22.583Z,58.00
2023-03-04T03:41:50.256Z,58.45
2023-03-04T03:44:18.201Z,57.70
2023-03-04T03:46:46.926Z,65.38
2023-03-04T03:49:14.619Z,58.75
2023-03-04T03:51:41.867Z,56.35
2023-03-04T03:54:09.974Z,54.38
2023-03-04T03:56:37.231Z,65.72
2023-03-04T03:59:04.971Z,60.85
2023-03-04T04:01:33.822Z,62.92
2023-03-04T04:04:01.671Z,45.83
2023-03-04T04:06:28.955Z,60.60
2023-03-04T04:08:56.600Z,59.55
2023-03-04T04:11:23.879Z,62.60
2023-03-04T04:13:51.671Z,60.42
2023-03-04T04:16:19.140Z,51.92
2023-03-04T04:18:46.973Z,49.35
2023-03-04T04:21:14.966Z,53.65
2023-03-04T04:23:42.568Z,56.95
2023-03-04T04:26:09.663Z,49.42
2023-03-04T04:28:37.349Z,51.83
2023-03-04T04:31:08.428Z,54.45
2023-03-04T04:33:37.023Z,53.55
2023-03-04T04:36:05.259Z,56.78
2023-03-04T04:38:33.114Z,55.03
2023-03-04T04:41:00.512Z,47.55
2023-03-04T04:43:28.347Z,55.75
2023-03-04T04:45:55.675Z,51.92
2023-03-04T04:48:23.332Z,47.38
2023-03-04T04:50:55.297Z,54.70
2023-03-04T04:53:23.015Z,37.60
2023-03-04T04:55:50.228Z,47.90
2023-03-04T04:58:17.915Z,52.63
2023-03-04T05:00:45.235Z,51.65
2023-03-04T05:03:12.930Z,44.95
2023-03-04T05:05:40.455Z,47.55
2023-03-04T05:08:08.157Z,49.55
2023-03-04T05:10:35.304Z,48.72
2023-03-04T05:13:03.083Z,47.15
2023-03-04T05:15:30.408Z,45.50
2023-03-04T05:17:58.047Z,44.97
2023-03-04T05:20:25.835Z,47.20
2023-03-04T05:22:53.872Z,43.40
2023-03-04T05:25:21.138Z,48.60
2023-03-04T05:27:48.698Z,46.97
2023-03-04T05:30:16.037Z,45.88
2023-03-04T05:32:43.888Z,41.72
2023-03-04T05:35:11.158Z,41.25
2023-03-04T05:37:38.929Z,42.13
2023-03-04T05:40:06.768Z,38.88
2023-03-04T05:42:34.734Z,38.60
2023-03-04T05:45:02.140Z,37.95
2023-03-04T05:47:29.568Z,42.08
2023-03-04T05:49:58.304Z,39.70
2023-03-04T05:52:25.877Z,38.35
2023-03-04T05:54:53.228Z,43.03
2023-03-04T05:57:20.968Z,41.03
2023-03-04T05:59:48.165Z,40.35
2023-03-04T06:02:16.066Z,41.28
2023-03-04T06:04:43.474Z,37.15
2023-03-04T06:07:11.093Z,44.70
2023-03-04T06:09:38.575Z,39.50
2023-03-04T06:12:06.508Z,37.65
2023-03-04T06:14:33.687Z,39.45
2023-03-04T06:17:01.185Z,36.40
2023-03-04T06:19:28.502Z,36.60
2023-03-04T06:21:56.057Z,41.95
2023-03-04T06:24:23.391Z,35.25
2023-03-04T06:26:51.012Z,41.58
2023-03-04T06:29:18.357Z,39.72
2023-03-04T06:31:46.077Z,42.63
2023-03-04T06:34:13.512Z,41.08
2023-03-04T06:36:41.088Z,42.65
2023-03-04T06:39:09.011Z,38.95
2023-03-04T06:41:36.698Z,38.80
2023-03-04T06:44:04.659Z,40.72
2023-03-04T06:46:33.899Z,38.63
2023-03-04T06:49:02.146Z,37.80
2023-03-04T06:51:30.503Z,39.40
2023-03-04T06:53:57.842Z,37.15
2023-03-04T06:56:25.659Z,40.90
2023-03-04T06:58:53.037Z,38.60
2023-03-04T07:01:21.960Z,37.35
2023-03-04T07:03:50.341Z,38.67
2023-03-04T07:06:21.610Z,37.38
2023-03-04T07:08:49.468Z,37.05
2023-03-04T07:11:17.741Z,35.00
2023-03-04T07:13:45.974Z,38.75
2023-03-04T07:16:18.897Z,39.33
2023-03-04T07:18:47.665Z,38.20
2023-03-04T07:21:16.223Z,34.78
2023-03-04T07:23:44.056Z,40.50
2023-03-04T07:26:12.012Z,36.70
2023-03-04T07:28:39.634Z,33.30
2023-03-04T07:31:12.227Z,48.67
2023-03-04T07:33:39.741Z,40.53
2023-03-04T07:36:07.555Z,41.47
2023-03-04T07:38:34.883Z,38.72
2023-03-04T07:41:03.288Z,36.53
2023-03-04T07:43:30.562Z,35.58
2023-03-04T07:46:02.334Z,35.50
2023-03-04T07:48:30.032Z,34.60
2023-03-04T07:51:11.344Z,33.47
2023-03-04T07:53:40.548Z,41.10
2023-03-04T07:56:09.250Z,35.63
2023-03-04T07:58:36.546Z,33.80
2023-03-04T08:01:10.624Z,32.33
2023-03-04T08:03:37.865Z,24.75
2023-03-04T08:06:07.602Z,35.47
2023-03-04T08:08:35.258Z,26.85
2023-03-04T08:11:07.547Z,33.63
2023-03-04T08:13:35.290Z,34.95
2023-03-04T08:16:04.100Z,32.65
2023-03-04T08:18:31.507Z,28.77
2023-03-04T08:20:59.376Z,31.38
2023-03-04T08:23:26.920Z,33.65
2023-03-04T08:25:54.868Z,34.38
2023-03-04T08:28:22.308Z,30.25
2023-03-04T08:30:53.615Z,32.78
2023-03-04T08:33:20.945Z,31.60
2023-03-04T08:35:48.957Z,27.13
2023-03-04T08:38:16.302Z,28.23
2023-03-04T08:40:43.938Z,32.25
2023-03-04T08:43:11.375Z,24.98
2023-03-04T08:45:39.307Z,28.02
2023-03-04T08:48:06.912Z,22.15
2023-03-04T08:50:34.660Z,24.55
2023-03-04T08:53:01.980Z,31.02
2023-03-04T08:55:29.564Z,27.33
2023-03-04T08:57:56.982Z,25.70
2023-03-04T09:00:24.592Z,25.65
2023-03-04T09:02:52.080Z,31.45
2023-03-04T09:05:19.635Z,31.75
2023-03-04T09:07:47.475Z,26.33
2023-03-04T09:10:15.256Z,31.52
2023-03-04T09:12:42.683Z,28.77
2023-03-04T09:15:12.091Z,25.17
2023-03-04T09:17:40.422Z,25.52
2023-03-04T09:20:10.482Z,32.42
2023-03-04T09:22:38.863Z,30.05
2023-03-04T09:25:12.052Z,24.75
2023-03-04T09:27:40.733Z,29.88
2023-03-04T09:30:09.500Z,25.20
2023-03-04T09:32:37.181Z,26.38
2023-03-04T09:35:05.510Z,25.13
2023-03-04T09:37:33.415Z,27.65
2023-03-04T09:40:00.958Z,33.97
2023-03-04T09:42:34.876Z,23.73
2023-03-04T09:45:04.377Z,29.25
2023-03-04T09:47:34.677Z,28.00
2023-03-04T09:50:06.959Z,22.20
2023-03-04T09:52:52.896Z,27.77
2023-03-04T09:55:28.935Z,29.67
2023-03-04T09:58:34.145Z,28.80
2023-03-04T10:01:31.277Z,31.65
2023-03-04T10:04:00.786Z,27.67
2023-03-04T10:06:29.089Z,25.83
2023-03-04T10:09:00.427Z,27.35
2023-03-04T10:11:43.289Z,29.05
2023-03-04T10:14:22.479Z,34.60
2023-03-04T10:16:56.418Z,28.77
2023-03-04T10:19:45.384Z,28.02
2023-03-04T10:22:19.906Z,26.70
2023-03-04T10:24:48.014Z,32.38
2023-03-04T10:27:17.869Z,28.45
2023-03-04T10:29:46.845Z,35.15
2023-03-04T10:32:18.379Z,32.55
2023-03-04T10:34:46.176Z,35.45
2023-03-04T10:37:14.172Z,33.38
2023-03-04T10:39:42.594Z,27.27
2023-03-04T10:42:16.580Z,31.05
2023-03-04T10:44:52.512Z,32.53
2023-03-04T10:47:21.353Z,37.22
2023-03-04T10:49:57.676Z,36.75
2023-03-04T10:52:33.054Z,39.50
2023-03-04T10:55:16.406Z,42.08
2023-03-04T10:57:45.944Z,48.25
2023-03-04T11:00:19.274Z,39.83
2023-03-04T11:02:47.855Z,33.30
2023-03-04T11:05:15.688Z,42.17
2023-03-04T11:07:59.336Z,43.30
2023-03-04T11:13:07.787Z,45.35
2023-03-04T11:15:48.946Z,37.42
2023-03-04T11:18:18.305Z,36.15
2023-03-04T11:20:49.641Z,38.95
2023-03-04T11:23:23.902Z,37.15
2023-03-04T11:25:58.135Z,38.03
2023-03-04T11:28:40.474Z,39.85
2023-03-04T11:31:17.062Z,45.33
2023-03-04T11:33:57.833Z,44.80
2023-03-04T11:36:51.167Z,36.30
2023-03-04T11:39:33.343Z,43.75
2023-03-04T11:42:49.041Z,49.50
2023-03-04T11:45:53.901Z,41.13
2023-03-04T11:48:37.597Z,42.75
2023-03-04T11:51:19.755Z,36.38
2023-03-04T11:53:56.282Z,40.97
2023-03-04T11:56:35.795Z,40.35
2023-03-04T11:59:35.889Z,45.00
2023-03-04T12:02:19.613Z,48.47
2023-03-04T12:05:19.791Z,42.60
2023-03-04T12:08:06.521Z,42.22
2023-03-04T12:10:52.637Z,48.97
2023-03-04T12:13:42.606Z,37.13
2023-03-04T12:16:47.218Z,41.30
2023-03-04T12:19:39.938Z,30.40
2023-03-04T12:22:41.613Z,25.95
2023-03-04T12:25:17.697Z,27.05
2023-03-04T12:27:51.999Z,21.42
2023-03-04T12:30:53.693Z,25.08
2023-03-04T12:33:24.749Z,26.90
2023-03-04T12:36:04.976Z,26.85
2023-03-04T12:38:44.915Z,25.40
2023-03-04T12:41:35.619Z,26.88
2023-03-04T12:44:22.154Z,25.25
2023-03-04T12:47:11.814Z,30.05
2023-03-04T12:49:57.973Z,25.95
2023-03-04T12:52:47.306Z,23.13
2023-03-04T12:55:17.694Z,22.27
2023-03-04T12:57:46.011Z,26.30
2023-03-04T13:00:13.762Z,21.45
2023-03-04T13:03:00.786Z,23.88
2023-03-04T13:05:37.345Z,24.63
2023-03-04T13:08:31.199Z,19.95
2023-03-04T13:11:27.580Z,24.75
2023-03-04T13:14:03.396Z,19.75
2023-03-04T13:16:33.472Z,18.75
2023-03-04T13:19:01.487Z,19.83
2023-03-04T13:21:31.998Z,20.75
2023-03-04T13:24:32.064Z,17.95
2023-03-04T13:26:59.486Z,11.93
2023-03-04T13:29:27.255Z,15.50
2023-03-04T13:32:05.862Z,9.98
2023-03-04T13:34:48.823Z,10.20
2023-03-04T13:37:36.387Z,6.18
2023-03-04T13:40:24.508Z,8.63
2023-03-04T13:42:51.854Z,6.55
2023-03-04T13:45:39.397Z,12.35
2023-03-04T13:48:24.527Z,9.98
2023-03-04T13:50:52.729Z,12.52
2023-03-04T13:53:47.206Z,8.52
2023-03-04T13:56:24.040Z,9.38
2023-03-04T13:59:01.536Z,9.32
2023-03-04T14:01:33.855Z,9.82
2023-03-04T14:04:05.588Z,7.55
2023-03-04T14:06:33.859Z,11.70
2023-03-04T14:09:15.013Z,12.77
2023-03-04T14:11:43.756Z,7.18
2023-03-04T14:14:13.992Z,15.18
2023-03-04T14:16:48.767Z,9.65
2023-03-04T14:19:25.424Z,9.20
2023-03-04T14:21:53.177Z,6.40
2023-03-04T14:24:22.434Z,13.07
2023-03-04T14:26:50.794Z,11.15
2023-03-04T14:29:26.953Z,10.90
2023-03-04T14:31:56.593Z,13.35
2023-03-04T14:34:32.315Z,15.90
2023-03-04T14:37:00.447Z,12.50
2023-03-04T14:39:30.801Z,13.00
2023-03-04T14:42:04.798Z,10.18
2023-03-04T14:47:30.400Z,4.90
2023-03-04T14:52:48.516Z,5.20
2023-03-04T14:55:15.720Z,8.10
2023-03-04T14:57:45.428Z,7.50
2023-03-04T15:00:27.252Z,7.75
2023-03-04T15:02:57.541Z,4.90
2023-03-04T15:05:28.794Z,6.40
2023-03-04T15:08:29.459Z,2.30
2023-03-04T15:11:02.572Z,3.05
2023-03-04T15:13:42.545Z,3.63
2023-03-04T15:16:11.790Z,4.63
2023-03-04T15:18:40.448Z,2.42
2023-03-04T15:21:19.928Z,4.57
2023-03-04T15:23:47.753Z,6.40
2023-03-04T15:26:15.087Z,4.90
2023-03-04T15:28:43.486Z,4.43
2023-03-04T15:31:21.581Z,4.57
2023-03-04T15:33:49.420Z,3.92
2023-03-04T15:36:19.251Z,4.57
2023-03-04T15:38:50.148Z,3.17
2023-03-04T15:41:27.142Z,4.93
2023-03-04T15:43:55.278Z,3.10
2023-03-04T15:46:23.132Z,4.57
2023-03-04T15:48:50.800Z,6.60
2023-03-04T15:51:21.130Z,5.40
2023-03-04T15:53:54.294Z,4.03
2023-03-04T15:56:27.172Z,7.80
2023-03-04T15:59:15.407Z,4.68
2023-03-04T16:01:43.064Z,5.82
2023-03-04T16:04:18.302Z,6.80
2023-03-04T16:06:47.664Z,6.90
2023-03-04T16:09:17.228Z,5.53
2023-03-04T16:11:47.669Z,3.13
2023-03-04T16:14:16.227Z,2.10
2023-03-04T16:16:44.526Z,2.15
2023-03-04T16:19:12.255Z,0.77
2023-03-04T16:21:40.240Z,5.15
2023-03-04T16:24:14.967Z,2.75
2023-03-04T16:26:42.336Z,2.72
2023-03-04T16:29:10.205Z,7.72
2023-03-04T16:31:37.605Z,1.40
2023-03-04T16:34:05.396Z,4.22
2023-03-04T16:36:32.920Z,9.23
2023-03-04T16:39:03.814Z,5.22
2023-03-04T16:41:31.398Z,3.78
2023-03-04T16:44:00.985Z,2.72
2023-03-04T16:46:28.890Z,2.42
2023-03-04T16:48:56.711Z,7.43
2023-03-04T16:51:24.311Z,7.40
2023-03-04T16:53:55.009Z,8.98
2023-03-04T16:56:22.940Z,4.13
2023-03-04T16:58:50.596Z,9.23
2023-03-04T17:01:29.041Z,3.88
2023-03-04T17:03:56.922Z,3.55
2023-03-04T17:06:25.362Z,6.47
2023-03-04T17:08:53.055Z,6.72
2023-03-04T17:11:22.437Z,4.03
2023-03-04T17:13:50.652Z,2.72
2023-03-04T17:16:18.538Z,7.45
2023-03-04T17:18:46.368Z,7.47
2023-03-04T17:21:22.632Z,6.82
2023-03-04T17:23:50.788Z,6.05
2023-03-04T17:26:21.190Z,5.40
2023-03-04T17:28:52.010Z,6.05
2023-03-04T17:31:20.709Z,5.70
2023-03-04T17:33:49.179Z,3.35
2023-03-04T17:36:18.608Z,7.05
2023-03-04T17:38:46.791Z,6.28
2023-03-04T17:41:17.566Z,10.50
2023-03-04T17:43:49.791Z,5.88
2023-03-04T17:46:20.529Z,1.83
2023-03-04T17:48:49.001Z,3.88
2023-03-04T17:51:16.285Z,6.53
2023-03-04T17:53:43.999Z,3.17
2023-03-04T17:56:12.187Z,4.75
2023-03-04T17:58:40.211Z,3.67
2023-03-04T18:01:16.307Z,3.28
2023-03-04T18:03:44.199Z,3.70
2023-03-04T18:06:12.124Z,5.78
2023-03-04T18:08:39.866Z,5.05
2023-03-04T18:11:08.074Z,7.30
2023-03-04T18:13:46.531Z,7.43
2023-03-04T18:16:16.513Z,7.28
2023-03-04T18:18:45.331Z,6.65
2023-03-04T18:21:13.889Z,6.93
2023-03-04T18:23:47.611Z,6.47
2023-03-04T18:26:24.942Z,10.88
2023-03-04T18:28:57.233Z,5.90
2023-03-04T18:31:35.913Z,5.88
2023-03-04T18:34:16.536Z,6.47
2023-03-04T18:36:54.220Z,3.33
2023-03-04T18:39:31.209Z,4.60
2023-03-04T18:42:02.074Z,4.55
2023-03-04T18:44:32.567Z,2.60
2023-03-04T18:47:03.864Z,5.35
2023-03-04T18:49:32.488Z,2.53
2023-03-04T18:52:04.399Z,5.75
2023-03-04T18:54:32.517Z,3.50
2023-03-04T18:57:18.830Z,5.00
2023-03-04T19:00:00.420Z,5.55
2023-03-04T19:05:53.062Z,6.07
2023-03-04T19:08:23.611Z,8.95
2023-03-04T19:10:55.938Z,8.38
2023-03-04T19:13:30.709Z,5.13
2023-03-04T19:15:59.626Z,4.18
2023-03-04T19:18:29.460Z,9.40
2023-03-04T19:21:00.043Z,3.35
2023-03-04T19:23:30.835Z,7.28
2023-03-04T19:25:58.939Z,6.43
2023-03-04T19:28:29.616Z,7.13
2023-03-04T19:31:27.685Z,7.43
2023-03-04T19:34:03.526Z,9.95
2023-03-04T19:36:34.225Z,15.10
2023-03-04T19:39:09.809Z,15.55
2023-03-04T19:41:38.034Z,16.88
2023-03-04T19:44:05.692Z,15.48
2023-03-04T19:46:46.952Z,7.90
2023-03-04T19:49:14.923Z,15.02
2023-03-04T19:51:46.347Z,6.75
2023-03-04T19:54:17.370Z,7.97
2023-03-04T19:56:45.558Z,11.77
2023-03-04T19:59:16.905Z,8.20
2023-03-04T20:01:46.126Z,8.17
2023-03-04T20:04:16.537Z,11.40
2023-03-04T20:06:49.947Z,15.93
2023-03-04T20:09:20.487Z,11.85
2023-03-04T20:11:58.153Z,11.68
2023-03-04T20:14:28.751Z,9.90
2023-03-04T20:17:02.989Z,12.85
2023-03-04T20:19:31.854Z,11.63
2023-03-04T20:22:09.233Z,16.83
2023-03-04T20:24:40.446Z,26.75
2023-03-04T20:27:11.516Z,20.45
2023-03-04T20:29:39.334Z,16.65
2023-03-04T20:32:07.245Z,13.77
2023-03-04T20:34:37.000Z,26.63
2023-03-04T20:37:04.619Z,28.88
2023-03-04T20:39:32.989Z,22.88
2023-03-04T20:42:04.097Z,25.17
2023-03-04T20:44:31.876Z,40.75
2023-03-04T20:47:00.462Z,48.88
2023-03-04T20:49:28.770Z,32.45
2023-03-04T20:52:00.977Z,27.33
2023-03-04T20:54:28.763Z,21.45
2023-03-04T20:56:56.823Z,33.15
2023-03-04T20:59:24.809Z,25.38
2023-03-04T21:01:52.714Z,20.77
2023-03-04T21:04:20.966Z,21.38
2023-03-04T21:06:51.799Z,26.60
2023-03-04T21:09:21.682Z,20.00
2023-03-04T21:11:51.841Z,22.48
2023-03-04T21:14:23.838Z,26.45
2023-03-04T21:17:01.160Z,28.17
2023-03-04T21:19:33.305Z,30.42
2023-03-04T21:22:02.419Z,21.52
2023-03-04T21:24:34.211Z,22.55
2023-03-04T21:27:04.734Z,24.13
2023-03-04T21:29:32.802Z,22.35
2023-03-04T21:32:27.463Z,23.45
2023-03-04T21:34:56.015Z,22.65
2023-03-04T21:37:24.876Z,22.13
2023-03-04T21:39:52.706Z,22.83
2023-03-04T21:42:20.662Z,18.98
2023-03-04T21:44:50.135Z,20.05
2023-03-04T21:47:22.812Z,18.40
2023-03-04T21:49:50.757Z,18.25
2023-03-04T21:52:20.806Z,16.08
2023-03-04T21:54:48.478Z,20.08
2023-03-04T21:57:16.528Z,21.25
2023-03-04T21:59:44.086Z,20.33
2023-03-04T22:02:20.988Z,21.58
2023-03-04T22:04:48.740Z,18.58
2023-03-04T22:07:16.545Z,20.58
2023-03-04T22:09:44.023Z,18.40
2023-03-04T22:12:11.938Z,14.18
2023-03-04T22:14:39.430Z,11.98
2023-03-04T22:17:07.280Z,18.73
2023-03-04T22:19:34.972Z,19.13
2023-03-04T22:22:02.965Z,18.35
2023-03-04T22:24:30.325Z,24.15
2023-03-04T22:27:00.027Z,21.95
2023-03-04T22:29:27.606Z,18.40
2023-03-04T22:31:55.347Z,16.67
2023-03-04T22:34:23.211Z,16.88
2023-03-04T22:36:50.886Z,24.20
2023-03-04T22:39:19.611Z,17.63
2023-03-04T22:41:47.741Z,16.92
2023-03-04T22:44:15.109Z,15.95
2023-03-04T22:46:43.867Z,15.15
2023-03-04T22:49:13.277Z,16.95
2023-03-04T22:51:43.944Z,17.08
2023-03-04T22:54:16.131Z,18.42
2023-03-04T22:56:44.358Z,15.93
2023-03-04T22:59:12.012Z,13.32
2023-03-04T23:01:41.056Z,15.10
2023-03-04T23:04:08.782Z,10.85
2023-03-04T23:06:37.893Z,19.25
2023-03-04T23:09:05.312Z,12.00
2023-03-04T23:11:35.706Z,17.17
2023-03-04T23:14:06.622Z,15.85
2023-03-04T23:16:42.634Z,12.20
2023-03-04T23:19:14.348Z,16.83
2023-03-04T23:21:42.894Z,11.37
2023-03-04T23:24:12.008Z,12.65
2023-03-04T23:26:41.405Z,14.40
2023-03-04T23:29:11.967Z,11.25
2023-03-04T23:31:39.888Z,16.63
2023-03-04T23:34:07.315Z,12.73
2023-03-04T23:36:37.417Z,14.82
2023-03-04T23:39:06.537Z,13.80
2023-03-04T23:41:35.040Z,13.98
2023-03-04T23:44:02.773Z,11.10
2023-03-04T23:46:30.650Z,9.60
2023-03-04T23:48:58.401Z,15.55
2023-03-04T23:51:28.450Z,15.07
2023-03-04T23:53:56.450Z,10.32
2023-03-04T23:56:26.598Z,16.80
2023-03-04T23:58:54.151Z,13.95
